createdAt,value
2022-07-26T00:01:56.902Z,6.03
2022-07-26T00:06:59.647Z,3.03
2022-07-26T00:12:02.354Z,2.20
2022-07-26T00:17:05.637Z,2.07
2022-07-26T00:22:26.538Z,3.33
2022-07-26T00:27:29.233Z,3.20
2022-07-26T00:32:31.864Z,2.97
2022-07-26T00:37:34.511Z,2.57
2022-07-26T00:42:37.394Z,4.43
2022-07-26T00:47:40.330Z,2.27
2022-07-26T00:52:47.837Z,4.50
2022-07-26T00:57:50.555Z,5.30
2022-07-26T01:02:53.569Z,2.77
2022-07-26T01:07:56.721Z,4.20
2022-07-26T01:12:59.356Z,2.67
2022-07-26T01:18:01.857Z,2.70
2022-07-26T01:23:04.237Z,5.50
2022-07-26T01:28:06.708Z,3.37
2022-07-26T01:33:09.295Z,3.57
2022-07-26T01:38:11.963Z,3.47
2022-07-26T01:43:14.508Z,3.53
2022-07-26T01:48:17.141Z,3.23
2022-07-26T01:53:19.525Z,5.17
2022-07-26T01:58:22.422Z,5.03
2022-07-26T02:03:25.233Z,7.17
2022-07-26T02:08:27.790Z,5.47
2022-07-26T02:13:32.974Z,2.30
2022-07-26T02:18:37.710Z,5.10
2022-07-26T02:23:41.745Z,4.33
2022-07-26T02:28:44.741Z,5.43
2022-07-26T02:33:47.289Z,4.30
2022-07-26T02:38:49.677Z,4.33
2022-07-26T02:43:52.098Z,5.40
2022-07-26T02:48:54.814Z,4.10
2022-07-26T02:53:57.290Z,4.07
2022-07-26T02:58:59.876Z,4.97
2022-07-26T03:04:03.618Z,6.03
2022-07-26T03:09:05.948Z,4.07
2022-07-26T03:14:08.790Z,5.43
2022-07-26T03:19:11.848Z,7.00
2022-07-26T03:24:14.500Z,4.80
2022-07-26T03:29:17.092Z,7.27
2022-07-26T03:34:19.688Z,5.83
2022-07-26T03:39:22.051Z,7.57
2022-07-26T03:44:24.758Z,4.20
2022-07-26T03:49:27.740Z,4.93
2022-07-26T03:54:30.396Z,5.20
2022-07-26T03:59:32.995Z,6.77
2022-07-26T04:04:35.461Z,5.43
2022-07-26T04:09:38.233Z,5.73
2022-07-26T04:14:42.583Z,6.10
2022-07-26T04:19:45.309Z,7.17
2022-07-26T04:24:47.845Z,5.97
2022-07-26T04:29:50.358Z,6.37
2022-07-26T04:34:53.324Z,6.40
2022-07-26T04:39:58.965Z,7.40
2022-07-26T04:45:07.791Z,5.77
2022-07-26T04:50:12.284Z,7.47
2022-07-26T04:55:16.308Z,5.23
2022-07-26T05:00:24.875Z,4.57
2022-07-26T05:05:29.681Z,8.03
2022-07-26T05:10:36.342Z,6.83
2022-07-26T05:15:39.151Z,8.43
2022-07-26T05:20:45.194Z,5.83
2022-07-26T05:25:48.093Z,6.03
2022-07-26T05:30:51.030Z,5.27
2022-07-26T05:35:53.497Z,10.10
2022-07-26T05:40:56.011Z,7.37
2022-07-26T05:45:58.792Z,6.40
2022-07-26T05:51:13.733Z,6.13
2022-07-26T05:56:16.285Z,5.53
2022-07-26T06:01:18.798Z,5.87
2022-07-26T06:06:22.526Z,5.13
2022-07-26T06:11:24.989Z,7.47
2022-07-26T06:16:27.408Z,9.00
2022-07-26T06:21:30.126Z,5.50
2022-07-26T06:26:32.869Z,5.33
2022-07-26T06:31:35.416Z,8.60
2022-07-26T06:36:38.194Z,8.20
2022-07-26T06:41:40.609Z,8.13
2022-07-26T06:46:43.329Z,10.80
2022-07-26T06:51:45.771Z,9.87
2022-07-26T06:56:50.320Z,10.47
2022-07-26T07:01:59.132Z,10.40
2022-07-26T07:07:05.873Z,10.30
2022-07-26T07:12:10.434Z,11.33
2022-07-26T07:17:18.502Z,11.63
2022-07-26T07:22:22.721Z,10.60
2022-07-26T07:27:27.336Z,12.27
2022-07-26T07:32:30.526Z,8.37
2022-07-26T07:37:53.166Z,10.80
2022-07-26T07:42:56.599Z,10.87
2022-07-26T07:47:59.100Z,10.63
2022-07-26T07:53:02.163Z,10.77
2022-07-26T07:58:04.841Z,11.67
2022-07-26T08:03:07.310Z,13.73
2022-07-26T08:08:10.656Z,8.63
2022-07-26T08:13:13.065Z,13.07
2022-07-26T08:18:15.648Z,11.87
2022-07-26T08:23:20.471Z,15.30
2022-07-26T08:28:45.121Z,14.43
2022-07-26T08:33:46.209Z,12.30
2022-07-26T08:38:49.604Z,14.00
2022-07-26T08:43:53.820Z,11.43
2022-07-26T08:48:57.281Z,11.23
2022-07-26T08:54:05.724Z,9.93
2022-07-26T08:59:20.833Z,10.70
2022-07-26T09:04:32.164Z,10.53
2022-07-26T09:09:54.585Z,10.80
2022-07-26T09:14:58.390Z,7.03
2022-07-26T09:20:15.819Z,7.33
2022-07-26T09:25:22.934Z,8.03
2022-07-26T09:30:26.931Z,7.77
2022-07-26T09:35:49.714Z,9.90
2022-07-26T09:40:55.440Z,8.40
2022-07-26T09:46:05.936Z,6.60
2022-07-26T09:51:11.153Z,8.57
2022-07-26T09:56:14.651Z,7.47
2022-07-26T10:01:19.185Z,5.67
2022-07-26T10:06:25.034Z,4.77
2022-07-26T10:11:41.460Z,5.47
2022-07-26T10:16:43.917Z,5.57
2022-07-26T10:21:46.350Z,6.43
2022-07-26T10:26:51.392Z,4.67
2022-07-26T10:32:03.041Z,4.77
2022-07-26T10:37:08.593Z,3.57
2022-07-26T10:42:11.461Z,3.50
2022-07-26T10:47:16.535Z,5.43
2022-07-26T10:52:21.617Z,4.93
2022-07-26T10:57:24.649Z,5.10
2022-07-26T11:02:32.320Z,3.30
2022-07-26T11:07:48.899Z,2.97
2022-07-26T11:13:12.049Z,2.63
2022-07-26T11:18:25.104Z,2.97
2022-07-26T11:23:35.604Z,3.10
2022-07-26T11:29:06.128Z,2.70
2022-07-26T11:34:20.801Z,3.63
2022-07-26T11:39:34.905Z,4.00
2022-07-26T11:44:48.358Z,4.17
2022-07-26T11:50:01.202Z,4.07
2022-07-26T11:55:13.356Z,4.80
2022-07-26T12:00:17.229Z,4.77
2022-07-26T12:05:22.589Z,3.33
2022-07-26T12:10:26.361Z,2.40
2022-07-26T12:15:29.180Z,3.23
2022-07-26T12:20:32.012Z,2.67
2022-07-26T12:25:37.570Z,3.93
2022-07-26T12:30:47.866Z,4.60
2022-07-26T12:35:51.899Z,3.13
2022-07-26T12:40:54.566Z,4.23
2022-07-26T12:45:58.785Z,3.77
2022-07-26T12:51:01.401Z,3.47
2022-07-26T12:56:05.637Z,4.40
2022-07-26T13:01:08.315Z,5.43
2022-07-26T13:06:11.335Z,2.80
2022-07-26T13:11:14.067Z,3.00
2022-07-26T13:16:16.478Z,2.27
2022-07-26T13:21:18.995Z,3.67
2022-07-26T13:26:21.762Z,3.07
2022-07-26T13:31:24.879Z,2.63
2022-07-26T13:36:27.354Z,2.67
2022-07-26T13:41:30.315Z,4.50
2022-07-26T13:46:34.097Z,2.70
2022-07-26T13:51:56.342Z,4.00
2022-07-26T13:57:01.599Z,3.70
2022-07-26T14:02:05.091Z,2.67
2022-07-26T14:07:09.708Z,2.83
2022-07-26T14:12:15.658Z,3.67
2022-07-26T14:17:18.378Z,2.87
2022-07-26T14:22:21.549Z,4.13
2022-07-26T14:27:24.036Z,3.10
2022-07-26T14:32:26.431Z,3.90
2022-07-26T14:37:42.678Z,3.60
2022-07-26T14:42:47.808Z,4.43
2022-07-26T14:47:50.534Z,4.30
2022-07-26T14:52:54.134Z,2.20
2022-07-26T14:57:56.832Z,3.93
2022-07-26T15:02:59.550Z,2.23
2022-07-26T15:08:07.882Z,3.00
2022-07-26T15:13:11.701Z,2.87
2022-07-26T15:18:14.386Z,2.83
2022-07-26T15:23:18.738Z,2.70
2022-07-26T15:28:22.530Z,3.03
2022-07-26T15:33:25.956Z,2.13
2022-07-26T15:38:29.347Z,2.07
2022-07-26T15:43:48.291Z,1.50
2022-07-26T15:48:54.424Z,3.00
2022-07-26T15:53:59.853Z,1.77
2022-07-26T15:59:07.919Z,1.67
2022-07-26T16:04:12.142Z,2.57
2022-07-26T16:09:19.705Z,2.13
2022-07-26T16:14:26.174Z,2.00
2022-07-26T16:19:29.584Z,2.23
2022-07-26T16:24:33.425Z,1.83
2022-07-26T16:29:37.059Z,2.43
2022-07-26T16:34:41.718Z,1.23
2022-07-26T16:39:45.772Z,2.57
2022-07-26T16:44:48.866Z,1.70
2022-07-26T16:49:51.389Z,2.30
2022-07-26T16:54:53.812Z,1.47
2022-07-26T16:59:56.215Z,2.60
2022-07-26T17:04:59.512Z,1.40
2022-07-26T17:10:02.141Z,2.20
2022-07-26T17:15:05.155Z,2.53
2022-07-26T17:20:08.327Z,2.73
2022-07-26T17:25:10.841Z,2.07
2022-07-26T17:30:13.560Z,2.77
2022-07-26T17:35:16.271Z,1.10
2022-07-26T17:40:18.680Z,2.00
2022-07-26T17:45:21.087Z,2.00
2022-07-26T17:50:36.518Z,1.47
2022-07-26T17:55:39.543Z,1.97
2022-07-26T18:00:42.006Z,1.50
2022-07-26T18:05:44.459Z,3.27
2022-07-26T18:10:51.045Z,3.03
2022-07-26T18:15:54.197Z,1.60
2022-07-26T18:20:56.835Z,2.60
2022-07-26T18:25:59.237Z,3.10
2022-07-26T18:31:01.993Z,1.80
2022-07-26T18:36:04.629Z,2.77
2022-07-26T18:41:07.083Z,3.03
2022-07-26T18:46:09.942Z,2.73
2022-07-26T18:51:12.357Z,5.03
2022-07-26T18:56:15.803Z,4.40
2022-07-26T19:01:18.280Z,3.93
2022-07-26T19:06:20.712Z,2.87
2022-07-26T19:11:24.759Z,2.77
2022-07-26T19:16:27.180Z,3.40
2022-07-26T19:21:29.610Z,4.07
2022-07-26T19:26:31.968Z,2.97
2022-07-26T19:31:34.481Z,3.67
2022-07-26T19:36:39.894Z,2.60
2022-07-26T19:41:43.699Z,2.20
2022-07-26T19:46:47.391Z,2.57
2022-07-26T19:51:49.755Z,3.40
2022-07-26T19:56:52.290Z,2.53
2022-07-26T20:01:56.608Z,3.27
2022-07-26T20:07:04.283Z,2.97
2022-07-26T20:12:06.609Z,2.90
2022-07-26T20:17:11.758Z,3.80
2022-07-26T20:22:15.410Z,6.80
2022-07-26T20:27:17.763Z,4.60
2022-07-26T20:32:20.170Z,3.40
2022-07-26T20:37:23.017Z,5.03
2022-07-26T20:42:25.316Z,4.17
2022-07-26T20:47:30.240Z,3.00
2022-07-26T20:52:32.483Z,2.73
2022-07-26T20:57:35.229Z,3.37
2022-07-26T21:02:38.300Z,3.83
2022-07-26T21:07:57.197Z,2.93
2022-07-26T21:13:02.027Z,5.17
2022-07-26T21:18:04.571Z,3.17
2022-07-26T21:23:16.684Z,3.73
2022-07-26T21:28:20.869Z,3.63
2022-07-26T21:33:27.841Z,6.33
2022-07-26T21:38:31.901Z,5.90
2022-07-26T21:43:34.184Z,3.80
2022-07-26T21:48:36.664Z,7.47
2022-07-26T21:53:38.954Z,5.67
2022-07-26T21:58:41.257Z,6.17
2022-07-26T22:03:43.590Z,4.53
2022-07-26T22:08:46.082Z,3.67
2022-07-26T22:13:48.570Z,3.17
2022-07-26T22:18:51.008Z,1.73
2022-07-26T22:23:53.458Z,2.57
2022-07-26T22:28:55.813Z,3.17
2022-07-26T22:33:58.356Z,4.03
2022-07-26T22:39:00.687Z,3.50
2022-07-26T22:44:03.067Z,3.77
2022-07-26T22:49:05.450Z,4.23
2022-07-26T22:54:14.555Z,2.53
2022-07-26T22:59:16.889Z,4.40
2022-07-26T23:04:19.516Z,2.83
2022-07-26T23:09:23.588Z,3.60
2022-07-26T23:14:25.918Z,4.43
2022-07-26T23:19:28.360Z,4.13
2022-07-26T23:24:30.579Z,4.00
2022-07-26T23:29:34.193Z,3.70
2022-07-26T23:34:36.649Z,2.50
2022-07-26T23:39:38.890Z,2.73
2022-07-26T23:44:41.189Z,3.90
2022-07-26T23:49:43.494Z,4.07
2022-07-26T23:54:45.817Z,4.63
2022-07-26T23:59:48.108Z,2.83
